sensor_id;sensor_type;location;lat;lon;timestamp;pressure;altitude;pressure_sealevel;temperature;humidity
17785;BME280;9016;53.582;10.062;2023-03-14T00:01:09;98725.91;;;13.34;78.72
17785;BME280;9016;53.582;10.062;2023-03-14T00:03:37;98728.22;;;13.29;79.10
17785;BME280;9016;53.582;10.062;2023-03-14T00:06:07;98738.09;;;13.28;79.87
17785;BME280;9016;53.582;10.062;2023-03-14T00:08:35;98733.94;;;13.34;79.44
17785;BME280;9016;53.582;10.062;2023-03-14T00:11:06;98737.38;;;13.18;80.29
17785;BME280;9016;53.582;10.062;2023-03-14T00:13:34;98744.72;;;13.16;80.95
17785;BME280;9016;53.582;10.062;2023-03-14T00:16:03;98759.88;;;13.08;81.09
17785;BME280;9016;53.582;10.062;2023-03-14T00:18:32;98756.88;;;13.11;81.06
17785;BME280;9016;53.582;10.062;2023-03-14T00:21:01;98763.41;;;12.98;81.60
17785;BME280;9016;53.582;10.062;2023-03-14T00:23:31;98751.44;;;13.03;80.87
17785;BME280;9016;53.582;10.062;2023-03-14T00:26:01;98749.63;;;13.03;80.45
17785;BME280;9016;53.582;10.062;2023-03-14T00:28:30;98751.38;;;12.94;80.26
17785;BME280;9016;53.582;10.062;2023-03-14T00:30:58;98749.75;;;13.02;80.12
17785;BME280;9016;53.582;10.062;2023-03-14T00:33:26;98733.03;;;13.00;79.47
17785;BME280;9016;53.582;10.062;2023-03-14T00:35:55;98717.97;;;12.98;79.72
17785;BME280;9016;53.582;10.062;2023-03-14T00:38:24;98718.81;;;12.99;78.66
17785;BME280;9016;53.582;10.062;2023-03-14T00:40:52;98714.72;;;13.05;78.22
17785;BME280;9016;53.582;10.062;2023-03-14T00:43:20;98718.75;;;13.09;78.18
17785;BME280;9016;53.582;10.062;2023-03-14T00:45:51;98723.78;;;13.12;78.40
17785;BME280;9016;53.582;10.062;2023-03-14T00:48:20;98711.09;;;13.14;77.77
17785;BME280;9016;53.582;10.062;2023-03-14T00:50:48;98705.56;;;13.15;77.64
17785;BME280;9016;53.582;10.062;2023-03-14T00:53:16;98689.69;;;13.14;77.45
17785;BME280;9016;53.582;10.062;2023-03-14T00:55:45;98701.56;;;13.11;77.31
17785;BME280;9016;53.582;10.062;2023-03-14T00:58:15;98702.78;;;13.25;77.34
17785;BME280;9016;53.582;10.062;2023-03-14T01:00:44;98706.78;;;13.21;76.85
17785;BME280;9016;53.582;10.062;2023-03-14T01:03:14;98699.66;;;13.29;76.07
17785;BME280;9016;53.582;10.062;2023-03-14T01:05:42;98712.94;;;13.39;75.82
17785;BME280;9016;53.582;10.062;2023-03-14T01:08:10;98713.44;;;13.42;75.40
17785;BME280;9016;53.582;10.062;2023-03-14T01:10:40;98705.13;;;13.53;75.14
17785;BME280;9016;53.582;10.062;2023-03-14T01:13:08;98710.66;;;13.60;75.02
17785;BME280;9016;53.582;10.062;2023-03-14T01:15:37;98724.56;;;13.63;74.48
17785;BME280;9016;53.582;10.062;2023-03-14T01:18:05;98725.50;;;13.46;75.31
17785;BME280;9016;53.582;10.062;2023-03-14T01:20:36;98726.38;;;13.55;75.29
17785;BME280;9016;53.582;10.062;2023-03-14T01:23:04;98734.88;;;13.50;74.47
17785;BME280;9016;53.582;10.062;2023-03-14T01:25:32;98731.00;;;13.45;75.17
17785;BME280;9016;53.582;10.062;2023-03-14T01:28:00;98726.97;;;13.41;75.74
17785;BME280;9016;53.582;10.062;2023-03-14T01:30:28;98726.31;;;13.47;75.36
17785;BME280;9016;53.582;10.062;2023-03-14T01:32:56;98710.94;;;13.49;75.38
17785;BME280;9016;53.582;10.062;2023-03-14T01:35:24;98695.41;;;13.52;74.84
17785;BME280;9016;53.582;10.062;2023-03-14T01:37:53;98688.22;;;13.53;74.57
17785;BME280;9016;53.582;10.062;2023-03-14T01:40:21;98678.56;;;13.60;74.49
17785;BME280;9016;53.582;10.062;2023-03-14T01:42:54;98667.00;;;13.51;74.05
17785;BME280;9016;53.582;10.062;2023-03-14T01:48:31;98651.59;;;13.45;74.38
17785;BME280;9016;53.582;10.062;2023-03-14T01:50:59;98655.41;;;13.43;74.46
17785;BME280;9016;53.582;10.062;2023-03-14T01:53:31;98649.53;;;13.39;75.26
17785;BME280;9016;53.582;10.062;2023-03-14T01:55:59;98643.91;;;13.42;75.54
17785;BME280;9016;53.582;10.062;2023-03-14T01:58:27;98655.09;;;13.46;75.46
17785;BME280;9016;53.582;10.062;2023-03-14T02:00:58;98664.09;;;13.45;76.84
17785;BME280;9016;53.582;10.062;2023-03-14T02:03:26;98666.28;;;13.41;76.58
17785;BME280;9016;53.582;10.062;2023-03-14T02:05:59;98660.56;;;13.36;77.30
17785;BME280;9016;53.582;10.062;2023-03-14T02:08:28;98654.38;;;13.28;77.48
17785;BME280;9016;53.582;10.062;2023-03-14T02:10:57;98651.81;;;13.26;77.90
17785;BME280;9016;53.582;10.062;2023-03-14T02:13:26;98640.75;;;13.13;78.52
17785;BME280;9016;53.582;10.062;2023-03-14T02:15:54;98620.69;;;13.09;79.00
17785;BME280;9016;53.582;10.062;2023-03-14T02:18:22;98609.53;;;12.96;79.74
17785;BME280;9016;53.582;10.062;2023-03-14T02:20:54;98597.69;;;12.98;79.75
17785;BME280;9016;53.582;10.062;2023-03-14T02:23:32;98574.03;;;13.04;79.59
17785;BME280;9016;53.582;10.062;2023-03-14T02:26:06;98583.72;;;12.79;80.04
17785;BME280;9016;53.582;10.062;2023-03-14T02:28:38;98574.72;;;12.80;81.05
17785;BME280;9016;53.582;10.062;2023-03-14T02:31:06;98588.22;;;12.78;80.69
17785;BME280;9016;53.582;10.062;2023-03-14T02:33:35;98589.56;;;12.74;80.43
17785;BME280;9016;53.582;10.062;2023-03-14T02:36:05;98589.59;;;12.82;80.36
17785;BME280;9016;53.582;10.062;2023-03-14T02:38:37;98596.63;;;12.83;79.62
17785;BME280;9016;53.582;10.062;2023-03-14T02:41:08;98597.34;;;12.68;79.93
17785;BME280;9016;53.582;10.062;2023-03-14T02:43:37;98600.88;;;12.68;80.25
17785;BME280;9016;53.582;10.062;2023-03-14T02:46:07;98604.69;;;12.66;80.04
17785;BME280;9016;53.582;10.062;2023-03-14T02:48:41;98609.19;;;12.65;80.63
17785;BME280;9016;53.582;10.062;2023-03-14T02:51:10;98604.16;;;12.62;80.57
17785;BME280;9016;53.582;10.062;2023-03-14T02:53:39;98611.19;;;12.63;80.77
17785;BME280;9016;53.582;10.062;2023-03-14T02:56:10;98605.31;;;12.60;80.78
17785;BME280;9016;53.582;10.062;2023-03-14T02:58:39;98617.41;;;12.72;80.36
17785;BME280;9016;53.582;10.062;2023-03-14T03:01:07;98611.56;;;12.68;80.72
17785;BME280;9016;53.582;10.062;2023-03-14T03:03:35;98607.06;;;12.69;80.76
17785;BME280;9016;53.582;10.062;2023-03-14T03:06:03;98611.38;;;12.70;80.83
17785;BME280;9016;53.582;10.062;2023-03-14T03:08:31;98612.50;;;12.85;80.45
17785;BME280;9016;53.582;10.062;2023-03-14T03:11:02;98615.84;;;12.87;80.30
17785;BME280;9016;53.582;10.062;2023-03-14T03:13:30;98605.78;;;12.81;80.46
17785;BME280;9016;53.582;10.062;2023-03-14T03:15:59;98610.44;;;12.79;80.82
17785;BME280;9016;53.582;10.062;2023-03-14T03:18:27;98608.00;;;12.85;80.45
17785;BME280;9016;53.582;10.062;2023-03-14T03:20:56;98603.69;;;12.92;80.50
17785;BME280;9016;53.582;10.062;2023-03-14T03:23:27;98598.69;;;12.98;79.77
17785;BME280;9016;53.582;10.062;2023-03-14T03:25:54;98584.06;;;12.84;80.12
17785;BME280;9016;53.582;10.062;2023-03-14T03:28:22;98586.38;;;12.79;80.28
17785;BME280;9016;53.582;10.062;2023-03-14T03:30:50;98583.38;;;12.82;80.25
17785;BME280;9016;53.582;10.062;2023-03-14T03:33:20;98572.91;;;12.88;80.06
17785;BME280;9016;53.582;10.062;2023-03-14T03:35:49;98572.28;;;12.94;79.28
17785;BME280;9016;53.582;10.062;2023-03-14T03:38:19;98578.44;;;12.95;78.45
17785;BME280;9016;53.582;10.062;2023-03-14T03:40:47;98571.63;;;13.01;79.09
17785;BME280;9016;53.582;10.062;2023-03-14T03:43:15;98581.72;;;13.07;78.92
17785;BME280;9016;53.582;10.062;2023-03-14T03:45:43;98567.38;;;13.16;77.95
17785;BME280;9016;53.582;10.062;2023-03-14T03:48:11;98558.50;;;13.15;77.54
17785;BME280;9016;53.582;10.062;2023-03-14T03:50:45;98552.66;;;13.12;77.28
17785;BME280;9016;53.582;10.062;2023-03-14T03:53:13;98544.00;;;13.18;77.49
17785;BME280;9016;53.582;10.062;2023-03-14T03:55:58;98543.41;;;12.98;77.76
17785;BME280;9016;53.582;10.062;2023-03-14T03:58:26;98547.22;;;12.95;77.88
17785;BME280;9016;53.582;10.062;2023-03-14T04:00:54;98550.09;;;13.02;77.95
17785;BME280;9016;53.582;10.062;2023-03-14T04:03:22;98545.41;;;12.96;77.83
17785;BME280;9016;53.582;10.062;2023-03-14T04:05:59;98542.28;;;13.09;77.35
17785;BME280;9016;53.582;10.062;2023-03-14T04:08:27;98535.94;;;13.10;77.17
17785;BME280;9016;53.582;10.062;2023-03-14T04:10:56;98534.44;;;13.07;76.78
17785;BME280;9016;53.582;10.062;2023-03-14T04:13:25;98534.19;;;13.01;77.22
17785;BME280;9016;53.582;10.062;2023-03-14T04:15:54;98527.66;;;12.95;77.11
17785;BME280;9016;53.582;10.062;2023-03-14T04:18:23;98523.34;;;12.94;77.37
17785;BME280;9016;53.582;10.062;2023-03-14T04:20:52;98532.16;;;12.86;77.56
17785;BME280;9016;53.582;10.062;2023-03-14T04:23:23;98530.50;;;12.85;77.73
17785;BME280;9016;53.582;10.062;2023-03-14T04:25:51;98530.00;;;12.90;77.36
17785;BME280;9016;53.582;10.062;2023-03-14T04:28:19;98528.59;;;13.04;76.84
17785;BME280;9016;53.582;10.062;2023-03-14T04:30:47;98526.19;;;13.01;77.01
17785;BME280;9016;53.582;10.062;2023-03-14T04:33:15;98518.50;;;12.98;76.81
17785;BME280;9016;53.582;10.062;2023-03-14T04:35:44;98520.44;;;12.87;76.63
17785;BME280;9016;53.582;10.062;2023-03-14T04:38:12;98516.28;;;12.85;77.08
17785;BME280;9016;53.582;10.062;2023-03-14T04:40:43;98505.25;;;12.88;77.19
17785;BME280;9016;53.582;10.062;2023-03-14T04:43:11;98516.59;;;12.82;77.18
17785;BME280;9016;53.582;10.062;2023-03-14T04:45:41;98514.47;;;12.93;77.01
17785;BME280;9016;53.582;10.062;2023-03-14T04:48:09;98512.81;;;12.92;76.23
17785;BME280;9016;53.582;10.062;2023-03-14T04:50:37;98512.59;;;12.86;76.33
17785;BME280;9016;53.582;10.062;2023-03-14T04:53:05;98513.91;;;12.82;77.26
17785;BME280;9016;53.582;10.062;2023-03-14T04:55:33;98512.75;;;12.84;76.52
17785;BME280;9016;53.582;10.062;2023-03-14T04:58:03;98506.78;;;12.90;76.33
17785;BME280;9016;53.582;10.062;2023-03-14T05:00:31;98498.13;;;12.97;76.12
17785;BME280;9016;53.582;10.062;2023-03-14T05:02:59;98493.94;;;12.94;75.84
17785;BME280;9016;53.582;10.062;2023-03-14T05:05:27;98492.56;;;12.90;76.59
17785;BME280;9016;53.582;10.062;2023-03-14T05:07:55;98491.25;;;12.94;75.69
17785;BME280;9016;53.582;10.062;2023-03-14T05:10:22;98490.81;;;13.07;75.35
17785;BME280;9016;53.582;10.062;2023-03-14T05:12:50;98483.47;;;13.09;75.38
17785;BME280;9016;53.582;10.062;2023-03-14T05:15:20;98489.50;;;13.11;75.77
17785;BME280;9016;53.582;10.062;2023-03-14T05:17:48;98476.97;;;13.19;74.65
17785;BME280;9016;53.582;10.062;2023-03-14T05:20:16;98480.34;;;13.21;75.41
17785;BME280;9016;53.582;10.062;2023-03-14T05:22:44;98505.91;;;13.24;75.23
17785;BME280;9016;53.582;10.062;2023-03-14T05:25:12;98503.41;;;13.22;77.19
17785;BME280;9016;53.582;10.062;2023-03-14T05:27:40;98503.25;;;13.24;78.42
17785;BME280;9016;53.582;10.062;2023-03-14T05:30:09;98506.38;;;13.11;80.38
17785;BME280;9016;53.582;10.062;2023-03-14T05:32:39;98506.16;;;12.97;81.62
17785;BME280;9016;53.582;10.062;2023-03-14T05:35:07;98497.38;;;12.78;82.66
17785;BME280;9016;53.582;10.062;2023-03-14T05:37:35;98491.31;;;12.68;83.21
17785;BME280;9016;53.582;10.062;2023-03-14T05:40:05;98497.41;;;12.53;84.13
17785;BME280;9016;53.582;10.062;2023-03-14T05:42:33;98497.91;;;12.48;85.39
17785;BME280;9016;53.582;10.062;2023-03-14T05:45:01;98499.69;;;12.40;85.70
17785;BME280;9016;53.582;10.062;2023-03-14T05:47:29;98504.56;;;12.44;86.19
17785;BME280;9016;53.582;10.062;2023-03-14T05:49:58;98496.38;;;12.46;87.17
17785;BME280;9016;53.582;10.062;2023-03-14T05:52:26;98491.25;;;12.52;86.30
17785;BME280;9016;53.582;10.062;2023-03-14T05:54:54;98484.34;;;12.42;86.43
17785;BME280;9016;53.582;10.062;2023-03-14T05:57:22;98481.66;;;12.42;86.65
17785;BME280;9016;53.582;10.062;2023-03-14T05:59:50;98475.19;;;12.44;86.79
17785;BME280;9016;53.582;10.062;2023-03-14T06:02:18;98472.44;;;12.36;86.49
17785;BME280;9016;53.582;10.062;2023-03-14T06:04:46;98478.44;;;12.30;86.78
17785;BME280;9016;53.582;10.062;2023-03-14T06:07:16;98474.16;;;12.37;87.14
17785;BME280;9016;53.582;10.062;2023-03-14T06:09:44;98474.78;;;12.31;87.50
17785;BME280;9016;53.582;10.062;2023-03-14T06:12:12;98477.78;;;12.36;87.31
17785;BME280;9016;53.582;10.062;2023-03-14T06:14:40;98477.50;;;12.39;87.36
17785;BME280;9016;53.582;10.062;2023-03-14T06:17:08;98484.16;;;12.43;87.34
17785;BME280;9016;53.582;10.062;2023-03-14T06:19:36;98480.88;;;12.49;86.81
17785;BME280;9016;53.582;10.062;2023-03-14T06:22:04;98470.47;;;12.38;86.66
17785;BME280;9016;53.582;10.062;2023-03-14T06:24:33;98483.25;;;12.52;86.71
17785;BME280;9016;53.582;10.062;2023-03-14T06:27:02;98488.88;;;12.49;85.74
17785;BME280;9016;53.582;10.062;2023-03-14T06:29:30;98494.19;;;12.41;85.05
17785;BME280;9016;53.582;10.062;2023-03-14T06:31:58;98493.28;;;12.25;86.05
17785;BME280;9016;53.582;10.062;2023-03-14T06:34:26;98492.16;;;12.35;85.40
17785;BME280;9016;53.582;10.062;2023-03-14T06:36:54;98493.19;;;12.42;85.42
17785;BME280;9016;53.582;10.062;2023-03-14T06:39:22;98497.22;;;12.46;86.11
17785;BME280;9016;53.582;10.062;2023-03-14T06:41:51;98510.69;;;12.37;86.24
17785;BME280;9016;53.582;10.062;2023-03-14T06:44:19;98511.81;;;12.34;85.83
17785;BME280;9016;53.582;10.062;2023-03-14T06:46:47;98520.59;;;12.19;85.42
17785;BME280;9016;53.582;10.062;2023-03-14T06:49:15;98517.69;;;12.38;85.66
17785;BME280;9016;53.582;10.062;2023-03-14T06:51:43;98519.81;;;12.60;84.52
17785;BME280;9016;53.582;10.062;2023-03-14T06:54:11;98516.72;;;12.72;83.29
17785;BME280;9016;53.582;10.062;2023-03-14T06:56:39;98525.53;;;12.65;81.92
17785;BME280;9016;53.582;10.062;2023-03-14T06:59:09;98524.28;;;12.51;82.14
17785;BME280;9016;53.582;10.062;2023-03-14T07:01:37;98528.38;;;12.63;81.58
17785;BME280;9016;53.582;10.062;2023-03-14T07:04:07;98529.28;;;12.54;80.44
17785;BME280;9016;53.582;10.062;2023-03-14T07:06:36;98526.63;;;12.54;79.65
17785;BME280;9016;53.582;10.062;2023-03-14T07:09:06;98534.03;;;12.60;79.39
17785;BME280;9016;53.582;10.062;2023-03-14T07:11:34;98528.00;;;12.58;79.65
17785;BME280;9016;53.582;10.062;2023-03-14T07:14:02;98540.22;;;12.61;77.75
17785;BME280;9016;53.582;10.062;2023-03-14T07:16:33;98538.00;;;12.56;76.91
17785;BME280;9016;53.582;10.062;2023-03-14T07:19:02;98541.06;;;12.61;76.94
17785;BME280;9016;53.582;10.062;2023-03-14T07:21:33;98540.63;;;12.74;75.16
17785;BME280;9016;53.582;10.062;2023-03-14T07:24:01;98539.97;;;12.80;75.82
17785;BME280;9016;53.582;10.062;2023-03-14T07:26:29;98548.38;;;12.93;74.94
17785;BME280;9016;53.582;10.062;2023-03-14T07:28:57;98546.72;;;12.92;74.98
17785;BME280;9016;53.582;10.062;2023-03-14T07:31:27;98544.88;;;12.92;74.36
17785;BME280;9016;53.582;10.062;2023-03-14T07:33:57;98558.97;;;13.03;74.60
17785;BME280;9016;53.582;10.062;2023-03-14T07:36:25;98547.44;;;13.02;75.22
17785;BME280;9016;53.582;10.062;2023-03-14T07:38:53;98556.38;;;12.93;76.05
17785;BME280;9016;53.582;10.062;2023-03-14T07:41:21;98545.50;;;12.86;76.93
17785;BME280;9016;53.582;10.062;2023-03-14T07:43:52;98548.97;;;13.05;76.29
17785;BME280;9016;53.582;10.062;2023-03-14T07:46:19;98549.84;;;12.87;77.26
17785;BME280;9016;53.582;10.062;2023-03-14T07:48:47;98555.78;;;12.73;77.19
17785;BME280;9016;53.582;10.062;2023-03-14T07:51:17;98545.97;;;13.08;77.09
17785;BME280;9016;53.582;10.062;2023-03-14T07:53:45;98556.19;;;13.12;76.10
17785;BME280;9016;53.582;10.062;2023-03-14T07:56:13;98542.88;;;12.94;75.32
17785;BME280;9016;53.582;10.062;2023-03-14T07:58:41;98559.84;;;12.77;75.58
17785;BME280;9016;53.582;10.062;2023-03-14T08:01:10;98569.22;;;12.89;75.77
17785;BME280;9016;53.582;10.062;2023-03-14T08:03:38;98556.81;;;13.06;74.61
17785;BME280;9016;53.582;10.062;2023-03-14T08:06:06;98557.34;;;12.84;74.59
17785;BME280;9016;53.582;10.062;2023-03-14T08:08:36;98558.47;;;12.73;75.03
17785;BME280;9016;53.582;10.062;2023-03-14T08:11:07;98554.50;;;12.77;74.37
17785;BME280;9016;53.582;10.062;2023-03-14T08:13:37;98560.06;;;12.92;75.00
17785;BME280;9016;53.582;10.062;2023-03-14T08:16:07;98559.28;;;13.00;75.28
17785;BME280;9016;53.582;10.062;2023-03-14T08:18:35;98557.72;;;13.23;73.56
17785;BME280;9016;53.582;10.062;2023-03-14T08:21:03;98546.09;;;13.48;73.49
17785;BME280;9016;53.582;10.062;2023-03-14T08:23:31;98552.75;;;13.36;71.71
17785;BME280;9016;53.582;10.062;2023-03-14T08:26:01;98555.41;;;13.28;71.84
17785;BME280;9016;53.582;10.062;2023-03-14T08:28:29;98544.75;;;13.44;71.83
17785;BME280;9016;53.582;10.062;2023-03-14T08:31:02;98545.22;;;13.31;71.97
17785;BME280;9016;53.582;10.062;2023-03-14T08:33:30;98546.38;;;13.29;72.15
17785;BME280;9016;53.582;10.062;2023-03-14T08:36:00;98560.91;;;13.26;72.77
17785;BME280;9016;53.582;10.062;2023-03-14T08:38:28;98553.25;;;13.39;72.19
17785;BME280;9016;53.582;10.062;2023-03-14T08:40:57;98541.88;;;13.29;72.12
17785;BME280;9016;53.582;10.062;2023-03-14T08:43:28;98543.88;;;13.27;71.89
17785;BME280;9016;53.582;10.062;2023-03-14T08:45:58;98548.19;;;13.20;72.61
17785;BME280;9016;53.582;10.062;2023-03-14T08:48:26;98559.41;;;13.24;72.84
17785;BME280;9016;53.582;10.062;2023-03-14T08:50:56;98531.69;;;13.33;72.92
17785;BME280;9016;53.582;10.062;2023-03-14T08:53:24;98546.03;;;13.32;72.38
17785;BME280;9016;53.582;10.062;2023-03-14T08:55:54;98538.00;;;13.24;73.06
17785;BME280;9016;53.582;10.062;2023-03-14T08:58:24;98537.00;;;13.25;72.54
17785;BME280;9016;53.582;10.062;2023-03-14T09:00:57;98537.22;;;12.98;73.74
17785;BME280;9016;53.582;10.062;2023-03-14T09:03:26;98552.31;;;13.07;74.62
17785;BME280;9016;53.582;10.062;2023-03-14T09:06:01;98554.41;;;12.95;76.20
17785;BME280;9016;53.582;10.062;2023-03-14T09:08:30;98546.13;;;12.80;76.61
17785;BME280;9016;53.582;10.062;2023-03-14T09:10:59;98540.56;;;13.00;76.97
17785;BME280;9016;53.582;10.062;2023-03-14T09:13:27;98540.13;;;13.12;76.19
17785;BME280;9016;53.582;10.062;2023-03-14T09:16:00;98543.31;;;13.16;76.80
17785;BME280;9016;53.582;10.062;2023-03-14T09:18:28;98532.31;;;13.19;76.83
17785;BME280;9016;53.582;10.062;2023-03-14T09:20:56;98543.03;;;12.93;76.74
17785;BME280;9016;53.582;10.062;2023-03-14T09:23:30;98542.13;;;13.10;76.41
17785;BME280;9016;53.582;10.062;2023-03-14T09:25:59;98531.78;;;13.15;76.91
17785;BME280;9016;53.582;10.062;2023-03-14T09:28:28;98544.81;;;13.10;76.49
17785;BME280;9016;53.582;10.062;2023-03-14T09:30:57;98544.47;;;13.05;75.69
17785;BME280;9016;53.582;10.062;2023-03-14T09:33:27;98539.53;;;13.01;76.61
17785;BME280;9016;53.582;10.062;2023-03-14T09:35:58;98545.66;;;13.11;76.79
17785;BME280;9016;53.582;10.062;2023-03-14T09:38:30;98545.16;;;13.15;75.79
17785;BME280;9016;53.582;10.062;2023-03-14T09:41:02;98558.16;;;13.10;76.50
17785;BME280;9016;53.582;10.062;2023-03-14T09:43:45;98550.19;;;13.26;76.35
17785;BME280;9016;53.582;10.062;2023-03-14T09:46:15;98552.94;;;13.50;75.70
17785;BME280;9016;53.582;10.062;2023-03-14T09:48:45;98560.28;;;13.48;76.95
17785;BME280;9016;53.582;10.062;2023-03-14T09:51:16;98567.94;;;13.27;78.82
17785;BME280;9016;53.582;10.062;2023-03-14T09:53:47;98576.47;;;13.31;79.74
17785;BME280;9016;53.582;10.062;2023-03-14T09:56:21;98583.94;;;12.85;81.19
17785;BME280;9016;53.582;10.062;2023-03-14T09:58:56;98606.38;;;12.67;82.52
17785;BME280;9016;53.582;10.062;2023-03-14T10:01:31;98657.63;;;12.45;82.63
17785;BME280;9016;53.582;10.062;2023-03-14T10:04:05;98662.38;;;11.98;79.58
17785;BME280;9016;53.582;10.062;2023-03-14T10:06:34;98681.47;;;11.76;79.61
17785;BME280;9016;53.582;10.062;2023-03-14T10:09:03;98684.25;;;11.47;80.98
17785;BME280;9016;53.582;10.062;2023-03-14T10:11:32;98699.84;;;11.52;81.00
17785;BME280;9016;53.582;10.062;2023-03-14T10:14:06;98702.69;;;11.41;80.65
17785;BME280;9016;53.582;10.062;2023-03-14T10:16:36;98704.31;;;11.24;80.34
17785;BME280;9016;53.582;10.062;2023-03-14T10:19:10;98716.97;;;11.13;80.89
17785;BME280;9016;53.582;10.062;2023-03-14T10:21:40;98727.69;;;10.93;80.75
17785;BME280;9016;53.582;10.062;2023-03-14T10:24:15;98732.63;;;10.79;82.29
17785;BME280;9016;53.582;10.062;2023-03-14T10:26:49;98743.00;;;10.72;82.72
17785;BME280;9016;53.582;10.062;2023-03-14T10:29:19;98757.97;;;10.35;81.49
17785;BME280;9016;53.582;10.062;2023-03-14T10:31:53;98774.91;;;10.15;82.40
17785;BME280;9016;53.582;10.062;2023-03-14T10:34:24;98787.59;;;10.02;81.75
17785;BME280;9016;53.582;10.062;2023-03-14T10:36:55;98811.44;;;9.73;81.76
17785;BME280;9016;53.582;10.062;2023-03-14T10:39:39;98820.25;;;9.44;80.07
17785;BME280;9016;53.582;10.062;2023-03-14T10:42:18;98856.00;;;9.30;79.17
17785;BME280;9016;53.582;10.062;2023-03-14T10:44:53;98854.81;;;9.23;78.23
17785;BME280;9016;53.582;10.062;2023-03-14T10:47:24;98875.88;;;8.94;79.66
17785;BME280;9016;53.582;10.062;2023-03-14T10:49:57;98877.38;;;8.76;78.66
17785;BME280;9016;53.582;10.062;2023-03-14T10:52:27;98891.22;;;8.59;79.18
17785;BME280;9016;53.582;10.062;2023-03-14T10:55:12;98902.75;;;8.69;78.10
17785;BME280;9016;53.582;10.062;2023-03-14T10:57:40;98922.06;;;8.71;76.35
17785;BME280;9016;53.582;10.062;2023-03-14T11:00:14;98921.09;;;8.72;75.30
17785;BME280;9016;53.582;10.062;2023-03-14T11:02:52;98947.28;;;8.66;75.19
17785;BME280;9016;53.582;10.062;2023-03-14T11:05:30;98949.09;;;8.65;73.08
17785;BME280;9016;53.582;10.062;2023-03-14T11:08:02;98971.75;;;8.80;71.09
17785;BME280;9016;53.582;10.062;2023-03-14T11:10:35;98979.22;;;8.86;70.79
17785;BME280;9016;53.582;10.062;2023-03-14T11:13:14;98988.06;;;8.87;71.23
17785;BME280;9016;53.582;10.062;2023-03-14T11:15:50;99000.97;;;8.80;71.72
17785;BME280;9016;53.582;10.062;2023-03-14T11:18:44;99011.72;;;8.68;73.53
17785;BME280;9016;53.582;10.062;2023-03-14T11:21:24;99017.13;;;8.11;73.89
17785;BME280;9016;53.582;10.062;2023-03-14T11:24:12;99033.81;;;7.89;73.20
17785;BME280;9016;53.582;10.062;2023-03-14T11:26:46;99057.56;;;7.80;72.74
17785;BME280;9016;53.582;10.062;2023-03-14T11:29:21;99063.53;;;7.60;72.94
17785;BME280;9016;53.582;10.062;2023-03-14T11:31:55;99070.00;;;7.56;72.66
17785;BME280;9016;53.582;10.062;2023-03-14T11:34:28;99103.94;;;7.51;72.34
17785;BME280;9016;53.582;10.062;2023-03-14T11:37:00;99094.25;;;7.39;72.48
17785;BME280;9016;53.582;10.062;2023-03-14T11:39:37;99104.53;;;7.43;73.62
17785;BME280;9016;53.582;10.062;2023-03-14T11:42:11;99114.59;;;7.62;72.79
17785;BME280;9016;53.582;10.062;2023-03-14T11:44:44;99121.88;;;7.71;73.29
17785;BME280;9016;53.582;10.062;2023-03-14T11:47:17;99132.97;;;7.76;73.56
17785;BME280;9016;53.582;10.062;2023-03-14T11:49:50;99125.81;;;7.89;72.54
17785;BME280;9016;53.582;10.062;2023-03-14T11:52:25;99124.09;;;7.88;70.92
17785;BME280;9016;53.582;10.062;2023-03-14T11:54:56;99156.53;;;7.91;72.51
17785;BME280;9016;53.582;10.062;2023-03-14T11:57:26;99141.53;;;8.03;69.05
17785;BME280;9016;53.582;10.062;2023-03-14T11:59:58;99146.72;;;8.50;70.16
17785;BME280;9016;53.582;10.062;2023-03-14T12:02:35;99146.13;;;8.58;69.48
17785;BME280;9016;53.582;10.062;2023-03-14T12:05:35;99152.69;;;8.54;65.25
17785;BME280;9016;53.582;10.062;2023-03-14T12:08:38;99156.03;;;8.56;64.87
17785;BME280;9016;53.582;10.062;2023-03-14T12:11:12;99156.75;;;8.47;65.66
17785;BME280;9016;53.582;10.062;2023-03-14T12:13:46;99171.78;;;8.24;64.05
17785;BME280;9016;53.582;10.062;2023-03-14T12:16:30;99172.75;;;8.34;63.08
17785;BME280;9016;53.582;10.062;2023-03-14T12:19:14;99177.97;;;8.47;62.13
17785;BME280;9016;53.582;10.062;2023-03-14T12:21:47;99190.50;;;8.45;63.47
17785;BME280;9016;53.582;10.062;2023-03-14T12:24:22;99203.81;;;8.56;62.73
17785;BME280;9016;53.582;10.062;2023-03-14T12:26:54;99221.03;;;8.50;62.84
17785;BME280;9016;53.582;10.062;2023-03-14T12:29:23;99216.44;;;8.41;62.42
17785;BME280;9016;53.582;10.062;2023-03-14T12:32:08;99208.59;;;8.40;62.92
17785;BME280;9016;53.582;10.062;2023-03-14T12:34:39;99225.66;;;8.48;63.51
17785;BME280;9016;53.582;10.062;2023-03-14T12:37:22;99234.97;;;8.54;63.42
17785;BME280;9016;53.582;10.062;2023-03-14T12:40:01;99233.91;;;8.67;63.32
17785;BME280;9016;53.582;10.062;2023-03-14T12:42:41;99250.31;;;8.61;62.81
17785;BME280;9016;53.582;10.062;2023-03-14T12:45:22;99250.16;;;8.52;63.59
17785;BME280;9016;53.582;10.062;2023-03-14T12:48:04;99250.25;;;8.50;63.61
17785;BME280;9016;53.582;10.062;2023-03-14T12:50:36;99249.59;;;8.59;64.04
17785;BME280;9016;53.582;10.062;2023-03-14T12:56:25;99250.94;;;8.76;63.05
17785;BME280;9016;53.582;10.062;2023-03-14T13:01:53;99278.97;;;8.91;63.72
17785;BME280;9016;53.582;10.062;2023-03-14T13:04:28;99300.13;;;8.92;63.57
17785;BME280;9016;53.582;10.062;2023-03-14T13:07:11;99301.50;;;8.74;63.63
17785;BME280;9016;53.582;10.062;2023-03-14T13:09:59;99305.31;;;8.59;64.17
17785;BME280;9016;53.582;10.062;2023-03-14T13:12:47;99313.50;;;8.56;64.54
17785;BME280;9016;53.582;10.062;2023-03-14T13:15:21;99318.19;;;8.53;64.72
17785;BME280;9016;53.582;10.062;2023-03-14T13:17:51;99327.88;;;8.54;65.36
17785;BME280;9016;53.582;10.062;2023-03-14T13:20:26;99331.22;;;8.56;63.96
17785;BME280;9016;53.582;10.062;2023-03-14T13:22:56;99345.47;;;8.55;63.79
17785;BME280;9016;53.582;10.062;2023-03-14T13:25:24;99345.59;;;8.53;59.91
17785;BME280;9016;53.582;10.062;2023-03-14T13:27:58;99351.09;;;8.50;57.82
17785;BME280;9016;53.582;10.062;2023-03-14T13:30:27;99370.28;;;8.66;55.63